Share

Keldron, SD (57634)

NonFedAWOS LEMMON SD US SUPERAWOS (MKLEM) Elev 2570 ft | 45.92 °N, 102.11 °W | Change Station

Current weather conditions updated 33 minutes ago

Overcast
Overcast
34 °F
Feels Like 23 °F
N
18
Wind Variable Wind from SE
Gusts 29.0 mph
Sunrise 5:57 AM
Sunset 7:37 PM
Moon Waning Gibbous

Today is forecast to be Much Warmer than yesterday.

Pressure 30.23 in
Visibility 10.0 miles
Clouds Few 1600 ft
Overcast 3500 ft
Windchill 23 °F
Dew Point 30 °F
Humidity 86%
Rainfall -999.00 in
Snow Depth Not available.
UV 3 out of 16
Pollen 7.40 out of 12
Air Quality Not available.
Flu Activity Sporadic
METAR KHEI 171853Z AUTO 13017G23KT 10SM FEW016 OVC035 00/M03 A3014 RMK AO2 SLP235 T00001033

More Conditions Fewer Conditions

Pressure 30.23 in
Visibility 10.0 miles
Clouds Few 1600 ft
Overcast 3500 ft
Windchill 23 °F
Dew Point 30 °F
Humidity 86%
Rainfall -999.00 in
Snow Depth Not available.
UV 3 out of 16
Pollen 7.40 out of 12
Air Quality Not available.
Flu Activity Sporadic
METAR KHEI 171853Z AUTO 13017G23KT 10SM FEW016 OVC035 00/M03 A3014 RMK AO2 SLP235 T00001033

More Conditions Fewer Conditions

10-Day Forecast

Almanac

Astronomy

Apr. 17, 2014 Rise Set
Actual Time 5:57 AM MDT 7:37 PM MDT
Civil Twilight 5:26 AM MDT 8:08 PM MDT
Nautical Twilight 4:48 AM MDT 8:47 PM MDT
Astronomical Twilight 4:07 AM MDT 9:28 PM MDT
Moon 10:31 PM MDT 7:25 AM MDT
Length of Visible Light 14h 42m
Length of Day
13h 39m
Tomorrow will be 3m 5s longer.
Waning Gibbous, 93% of the Moon is Illuminated
Today
Waning Gibbous
Apr 22
Last Quarter
Apr 29
New
May 6
First Quarter
May 14
Full

Today's Extremes

State Highs State Lows

Community

  • New Day
    New Day
  • Lake Michigan Sunrise
    Lake Michigan Sunrise
  • sunset from izmir, narlıdere
    sunset from izmir, narlıdere
  • oregon cherry
    oregon cherry
  • Sunset over the Bay
    Sunset over the Bay

WunderPhotos

Upload Photos

1,702,103 photos uploaded!

Nearby

Snow Depth

Station Depth Elevation
North Rapid Creek 23 in 6130 ft
Blind Park 26 in 6890 ft

Coastal Water Temperatures

Place Temperature
No Stations Reporting

Earthquake Activity

City Distance Mag. Time & Date
No recent earthquake activity has been reported nearby.
Minimum magnitude displayed is 2.5.

Nearby Weather Stations

Station Location Temp. Windchill Dew Point Humidity Wind Precip. Elev Updated Type
NonFedAWOS LEMMON , Lemmon, SD 34 °F 23 °F 30 °F 86% SE  at  18 mph 0.00 in / hr 2570 ft 12:55 PM MDT MADIS
HADS SHADEHILL RESERVOIR NEAR SHADEHI SD, Lemmon, SD 33 °F 33 °F - - North  at  - 0.00 in / hr 2250 ft 12:15 PM MDT MADIS

Show More Stations Show Fewer Stations

What do you think?

We're not finished. Please let us know what you like, what you don't like, and what you are still missing.